sensor_id;sensor_type;location;lat;lon;timestamp;temperature;humidity
6756;DHT22;3415;51.148;7.014;2023-06-14T00:00:49;18.70;99.90
6756;DHT22;3415;51.148;7.014;2023-06-14T00:03:18;18.60;99.90
6756;DHT22;3415;51.148;7.014;2023-06-14T00:05:47;18.60;99.90
6756;DHT22;3415;51.148;7.014;2023-06-14T00:08:15;18.40;99.90
6756;DHT22;3415;51.148;7.014;2023-06-14T00:10:42;18.20;99.90
6756;DHT22;3415;51.148;7.014;2023-06-14T00:13:11;18.20;99.90
6756;DHT22;3415;51.148;7.014;2023-06-14T00:15:38;18.20;99.90
6756;DHT22;3415;51.148;7.014;2023-06-14T00:18:05;18.30;99.90
6756;DHT22;3415;51.148;7.014;2023-06-14T00:20:33;18.00;99.90
6756;DHT22;3415;51.148;7.014;2023-06-14T00:23:00;17.90;99.90
6756;DHT22;3415;51.148;7.014;2023-06-14T00:25:27;18.00;99.90
6756;DHT22;3415;51.148;7.014;2023-06-14T00:27:55;18.00;99.90
6756;DHT22;3415;51.148;7.014;2023-06-14T00:30:24;18.00;99.90
6756;DHT22;3415;51.148;7.014;2023-06-14T00:32:51;17.90;99.90
6756;DHT22;3415;51.148;7.014;2023-06-14T00:35:17;18.00;99.90
6756;DHT22;3415;51.148;7.014;2023-06-14T00:37:44;17.80;99.90
6756;DHT22;3415;51.148;7.014;2023-06-14T00:40:11;17.50;99.90
6756;DHT22;3415;51.148;7.014;2023-06-14T00:42:38;17.30;99.90
6756;DHT22;3415;51.148;7.014;2023-06-14T00:45:06;17.40;99.90
6756;DHT22;3415;51.148;7.014;2023-06-14T00:47:35;17.20;99.90
6756;DHT22;3415;51.148;7.014;2023-06-14T00:50:03;17.20;99.90
6756;DHT22;3415;51.148;7.014;2023-06-14T00:52:32;17.00;99.90
6756;DHT22;3415;51.148;7.014;2023-06-14T00:55:00;16.90;99.90
6756;DHT22;3415;51.148;7.014;2023-06-14T00:57:27;16.70;99.90
6756;DHT22;3415;51.148;7.014;2023-06-14T00:59:55;16.50;99.90
6756;DHT22;3415;51.148;7.014;2023-06-14T01:02:22;16.30;99.90
6756;DHT22;3415;51.148;7.014;2023-06-14T01:04:51;16.30;99.90
6756;DHT22;3415;51.148;7.014;2023-06-14T01:07:25;16.10;99.90
6756;DHT22;3415;51.148;7.014;2023-06-14T01:10:03;16.10;99.90
6756;DHT22;3415;51.148;7.014;2023-06-14T01:12:36;16.10;99.90
6756;DHT22;3415;51.148;7.014;2023-06-14T01:15:06;16.00;99.90
6756;DHT22;3415;51.148;7.014;2023-06-14T01:17:34;15.90;99.90
6756;DHT22;3415;51.148;7.014;2023-06-14T01:20:03;15.80;99.90
6756;DHT22;3415;51.148;7.014;2023-06-14T01:22:35;15.70;99.90
6756;DHT22;3415;51.148;7.014;2023-06-14T01:25:05;15.80;99.90
6756;DHT22;3415;51.148;7.014;2023-06-14T01:27:32;15.50;99.90
6756;DHT22;3415;51.148;7.014;2023-06-14T01:29:59;15.70;99.90
6756;DHT22;3415;51.148;7.014;2023-06-14T01:32:29;15.30;99.90
6756;DHT22;3415;51.148;7.014;2023-06-14T01:34:56;15.30;99.90
6756;DHT22;3415;51.148;7.014;2023-06-14T01:37:23;15.30;99.90
6756;DHT22;3415;51.148;7.014;2023-06-14T01:39:50;15.20;99.90
6756;DHT22;3415;51.148;7.014;2023-06-14T01:42:19;15.10;99.90
6756;DHT22;3415;51.148;7.014;2023-06-14T01:44:46;15.10;99.90
6756;DHT22;3415;51.148;7.014;2023-06-14T01:47:14;15.10;99.90
6756;DHT22;3415;51.148;7.014;2023-06-14T01:49:41;15.10;99.90
6756;DHT22;3415;51.148;7.014;2023-06-14T01:52:08;15.20;99.90
6756;DHT22;3415;51.148;7.014;2023-06-14T01:54:35;15.20;99.90
6756;DHT22;3415;51.148;7.014;2023-06-14T01:57:07;15.20;99.90
6756;DHT22;3415;51.148;7.014;2023-06-14T01:59:35;15.20;99.90
6756;DHT22;3415;51.148;7.014;2023-06-14T02:02:03;15.20;99.90
6756;DHT22;3415;51.148;7.014;2023-06-14T02:04:30;15.10;99.90
6756;DHT22;3415;51.148;7.014;2023-06-14T02:06:56;15.10;99.90
6756;DHT22;3415;51.148;7.014;2023-06-14T02:09:23;15.10;99.90
6756;DHT22;3415;51.148;7.014;2023-06-14T02:11:50;15.10;99.90
6756;DHT22;3415;51.148;7.014;2023-06-14T02:14:17;15.20;99.90
6756;DHT22;3415;51.148;7.014;2023-06-14T02:16:46;15.30;99.90
6756;DHT22;3415;51.148;7.014;2023-06-14T02:19:14;15.30;99.90
6756;DHT22;3415;51.148;7.014;2023-06-14T02:21:41;15.40;99.90
6756;DHT22;3415;51.148;7.014;2023-06-14T02:24:08;15.40;99.90
6756;DHT22;3415;51.148;7.014;2023-06-14T02:26:35;15.40;99.90
6756;DHT22;3415;51.148;7.014;2023-06-14T02:29:03;15.30;99.90
6756;DHT22;3415;51.148;7.014;2023-06-14T02:31:30;15.30;99.90
6756;DHT22;3415;51.148;7.014;2023-06-14T02:33:59;15.30;99.90
6756;DHT22;3415;51.148;7.014;2023-06-14T02:36:26;15.20;99.90
6756;DHT22;3415;51.148;7.014;2023-06-14T02:38:53;15.20;99.90
6756;DHT22;3415;51.148;7.014;2023-06-14T02:41:20;15.10;99.90
6756;DHT22;3415;51.148;7.014;2023-06-14T02:43:46;15.10;99.90
6756;DHT22;3415;51.148;7.014;2023-06-14T02:46:13;15.10;99.90
6756;DHT22;3415;51.148;7.014;2023-06-14T02:48:40;15.10;99.90
6756;DHT22;3415;51.148;7.014;2023-06-14T02:51:08;15.60;99.90
6756;DHT22;3415;51.148;7.014;2023-06-14T02:53:35;15.20;99.90
6756;DHT22;3415;51.148;7.014;2023-06-14T02:56:03;15.00;99.90
6756;DHT22;3415;51.148;7.014;2023-06-14T02:58:30;15.00;99.90
6756;DHT22;3415;51.148;7.014;2023-06-14T03:00:58;15.20;99.90
6756;DHT22;3415;51.148;7.014;2023-06-14T03:03:28;15.20;99.90
6756;DHT22;3415;51.148;7.014;2023-06-14T03:05:55;15.60;99.90
6756;DHT22;3415;51.148;7.014;2023-06-14T03:08:23;15.70;99.90
6756;DHT22;3415;51.148;7.014;2023-06-14T03:10:53;15.80;99.90
6756;DHT22;3415;51.148;7.014;2023-06-14T03:13:21;15.90;99.90
6756;DHT22;3415;51.148;7.014;2023-06-14T03:15:49;15.90;99.90
6756;DHT22;3415;51.148;7.014;2023-06-14T03:18:16;16.00;99.90
6756;DHT22;3415;51.148;7.014;2023-06-14T03:20:43;16.00;99.90
6756;DHT22;3415;51.148;7.014;2023-06-14T03:23:11;16.00;99.90
6756;DHT22;3415;51.148;7.014;2023-06-14T03:25:40;16.20;99.90
6756;DHT22;3415;51.148;7.014;2023-06-14T03:28:07;16.10;99.90
6756;DHT22;3415;51.148;7.014;2023-06-14T03:30:34;16.00;99.90
6756;DHT22;3415;51.148;7.014;2023-06-14T03:33:01;16.00;99.90
6756;DHT22;3415;51.148;7.014;2023-06-14T03:35:28;15.80;99.90
6756;DHT22;3415;51.148;7.014;2023-06-14T03:37:55;15.70;99.90
6756;DHT22;3415;51.148;7.014;2023-06-14T03:40:29;15.20;99.90
6756;DHT22;3415;51.148;7.014;2023-06-14T03:42:58;15.10;99.90
6756;DHT22;3415;51.148;7.014;2023-06-14T03:45:24;15.10;99.90
6756;DHT22;3415;51.148;7.014;2023-06-14T03:47:51;15.00;99.90
6756;DHT22;3415;51.148;7.014;2023-06-14T03:50:18;14.90;99.90
6756;DHT22;3415;51.148;7.014;2023-06-14T03:52:45;14.80;99.90
6756;DHT22;3415;51.148;7.014;2023-06-14T03:55:12;14.80;99.90
6756;DHT22;3415;51.148;7.014;2023-06-14T03:57:39;14.80;99.90
6756;DHT22;3415;51.148;7.014;2023-06-14T04:00:09;14.70;99.90
6756;DHT22;3415;51.148;7.014;2023-06-14T04:02:37;14.70;99.90
6756;DHT22;3415;51.148;7.014;2023-06-14T04:05:04;14.90;99.90
6756;DHT22;3415;51.148;7.014;2023-06-14T04:07:34;14.70;99.90
6756;DHT22;3415;51.148;7.014;2023-06-14T04:10:06;14.80;99.90
6756;DHT22;3415;51.148;7.014;2023-06-14T04:12:33;14.80;99.90
6756;DHT22;3415;51.148;7.014;2023-06-14T04:14:59;14.80;99.90
6756;DHT22;3415;51.148;7.014;2023-06-14T04:17:28;14.90;99.90
6756;DHT22;3415;51.148;7.014;2023-06-14T04:19:55;14.70;99.90
6756;DHT22;3415;51.148;7.014;2023-06-14T04:22:24;14.60;99.90
6756;DHT22;3415;51.148;7.014;2023-06-14T04:24:54;14.50;99.90
6756;DHT22;3415;51.148;7.014;2023-06-14T04:27:21;14.40;99.90
6756;DHT22;3415;51.148;7.014;2023-06-14T04:29:51;14.50;99.90
6756;DHT22;3415;51.148;7.014;2023-06-14T04:32:23;14.50;99.90
6756;DHT22;3415;51.148;7.014;2023-06-14T04:34:53;14.50;99.90
6756;DHT22;3415;51.148;7.014;2023-06-14T04:37:20;14.50;99.90
6756;DHT22;3415;51.148;7.014;2023-06-14T04:39:47;14.60;99.90
6756;DHT22;3415;51.148;7.014;2023-06-14T04:42:14;14.70;99.90
6756;DHT22;3415;51.148;7.014;2023-06-14T04:44:42;15.20;99.90
6756;DHT22;3415;51.148;7.014;2023-06-14T04:47:09;15.40;99.90
6756;DHT22;3415;51.148;7.014;2023-06-14T04:49:36;15.50;99.90
6756;DHT22;3415;51.148;7.014;2023-06-14T04:52:06;15.50;99.90
6756;DHT22;3415;51.148;7.014;2023-06-14T04:54:33;15.60;99.90
6756;DHT22;3415;51.148;7.014;2023-06-14T04:57:03;15.60;99.90
6756;DHT22;3415;51.148;7.014;2023-06-14T04:59:31;15.70;99.90
6756;DHT22;3415;51.148;7.014;2023-06-14T05:01:59;16.00;99.90
6756;DHT22;3415;51.148;7.014;2023-06-14T05:04:26;16.00;99.90
6756;DHT22;3415;51.148;7.014;2023-06-14T05:06:53;16.40;99.90
6756;DHT22;3415;51.148;7.014;2023-06-14T05:09:22;16.70;99.90
6756;DHT22;3415;51.148;7.014;2023-06-14T05:11:49;17.30;99.90
6756;DHT22;3415;51.148;7.014;2023-06-14T05:14:16;17.30;99.90
6756;DHT22;3415;51.148;7.014;2023-06-14T05:16:43;17.50;99.90
6756;DHT22;3415;51.148;7.014;2023-06-14T05:19:10;17.80;99.90
6756;DHT22;3415;51.148;7.014;2023-06-14T05:21:36;17.90;99.90
6756;DHT22;3415;51.148;7.014;2023-06-14T05:24:04;18.20;99.90
6756;DHT22;3415;51.148;7.014;2023-06-14T05:26:32;18.20;99.90
6756;DHT22;3415;51.148;7.014;2023-06-14T05:28:59;18.50;99.90
6756;DHT22;3415;51.148;7.014;2023-06-14T05:31:27;18.80;99.90
6756;DHT22;3415;51.148;7.014;2023-06-14T05:33:54;19.10;99.90
6756;DHT22;3415;51.148;7.014;2023-06-14T05:36:21;19.10;99.90
6756;DHT22;3415;51.148;7.014;2023-06-14T05:38:48;19.30;99.90
6756;DHT22;3415;51.148;7.014;2023-06-14T05:41:16;19.70;99.90
6756;DHT22;3415;51.148;7.014;2023-06-14T05:43:44;20.00;99.90
6756;DHT22;3415;51.148;7.014;2023-06-14T05:46:11;20.30;99.90
6756;DHT22;3415;51.148;7.014;2023-06-14T05:48:38;20.50;99.90
6756;DHT22;3415;51.148;7.014;2023-06-14T05:51:05;20.80;99.90
6756;DHT22;3415;51.148;7.014;2023-06-14T05:53:34;21.60;99.90
6756;DHT22;3415;51.148;7.014;2023-06-14T05:56:01;21.60;99.90
6756;DHT22;3415;51.148;7.014;2023-06-14T05:58:28;21.80;99.90
6756;DHT22;3415;51.148;7.014;2023-06-14T06:00:56;22.40;99.90
6756;DHT22;3415;51.148;7.014;2023-06-14T06:03:23;22.40;99.90
6756;DHT22;3415;51.148;7.014;2023-06-14T06:05:50;22.70;99.90
6756;DHT22;3415;51.148;7.014;2023-06-14T06:08:17;23.10;99.90
6756;DHT22;3415;51.148;7.014;2023-06-14T06:10:44;23.30;99.90
6756;DHT22;3415;51.148;7.014;2023-06-14T06:13:11;23.70;99.90
6756;DHT22;3415;51.148;7.014;2023-06-14T06:15:37;23.80;99.90
6756;DHT22;3415;51.148;7.014;2023-06-14T06:18:06;23.90;99.90
6756;DHT22;3415;51.148;7.014;2023-06-14T06:20:33;24.30;99.90
6756;DHT22;3415;51.148;7.014;2023-06-14T06:23:00;24.20;99.90
6756;DHT22;3415;51.148;7.014;2023-06-14T06:25:26;24.10;99.90
6756;DHT22;3415;51.148;7.014;2023-06-14T06:27:54;24.00;99.90
6756;DHT22;3415;51.148;7.014;2023-06-14T06:30:21;24.20;99.90
6756;DHT22;3415;51.148;7.014;2023-06-14T06:32:48;24.40;99.90
6756;DHT22;3415;51.148;7.014;2023-06-14T06:35:17;24.80;99.90
6756;DHT22;3415;51.148;7.014;2023-06-14T06:37:44;24.60;99.90
6756;DHT22;3415;51.148;7.014;2023-06-14T06:40:11;24.80;99.90
6756;DHT22;3415;51.148;7.014;2023-06-14T06:42:38;25.20;99.90
6756;DHT22;3415;51.148;7.014;2023-06-14T06:45:06;25.00;99.90
6756;DHT22;3415;51.148;7.014;2023-06-14T06:47:32;25.10;99.90
6756;DHT22;3415;51.148;7.014;2023-06-14T06:49:59;25.20;99.90
6756;DHT22;3415;51.148;7.014;2023-06-14T06:52:27;25.80;99.90
6756;DHT22;3415;51.148;7.014;2023-06-14T06:54:54;25.80;99.90
6756;DHT22;3415;51.148;7.014;2023-06-14T06:57:22;25.80;99.90
6756;DHT22;3415;51.148;7.014;2023-06-14T06:59:49;26.00;99.90
6756;DHT22;3415;51.148;7.014;2023-06-14T07:02:16;25.80;99.90
6756;DHT22;3415;51.148;7.014;2023-06-14T07:04:43;25.80;99.90
6756;DHT22;3415;51.148;7.014;2023-06-14T07:07:10;26.30;99.90
6756;DHT22;3415;51.148;7.014;2023-06-14T07:09:38;26.70;99.90
6756;DHT22;3415;51.148;7.014;2023-06-14T07:12:06;27.00;99.90
6756;DHT22;3415;51.148;7.014;2023-06-14T07:14:33;27.10;99.90
6756;DHT22;3415;51.148;7.014;2023-06-14T07:17:00;27.20;99.90
6756;DHT22;3415;51.148;7.014;2023-06-14T07:19:27;27.00;99.90
6756;DHT22;3415;51.148;7.014;2023-06-14T07:21:54;26.80;99.90
6756;DHT22;3415;51.148;7.014;2023-06-14T07:24:21;26.90;99.90
6756;DHT22;3415;51.148;7.014;2023-06-14T07:26:49;27.50;99.90
6756;DHT22;3415;51.148;7.014;2023-06-14T07:29:16;27.20;99.90
6756;DHT22;3415;51.148;7.014;2023-06-14T07:31:43;27.60;99.90
6756;DHT22;3415;51.148;7.014;2023-06-14T07:34:10;28.20;99.90
6756;DHT22;3415;51.148;7.014;2023-06-14T07:36:37;28.60;99.90
6756;DHT22;3415;51.148;7.014;2023-06-14T07:39:03;28.60;99.90
6756;DHT22;3415;51.148;7.014;2023-06-14T07:41:32;29.00;99.90
6756;DHT22;3415;51.148;7.014;2023-06-14T07:44:00;29.00;99.90
6756;DHT22;3415;51.148;7.014;2023-06-14T07:46:26;29.00;99.90
6756;DHT22;3415;51.148;7.014;2023-06-14T07:48:53;29.20;99.90
6756;DHT22;3415;51.148;7.014;2023-06-14T07:51:20;28.70;99.90
6756;DHT22;3415;51.148;7.014;2023-06-14T07:53:48;28.50;99.90
6756;DHT22;3415;51.148;7.014;2023-06-14T07:56:15;28.30;99.90
6756;DHT22;3415;51.148;7.014;2023-06-14T07:58:42;28.20;99.90
6756;DHT22;3415;51.148;7.014;2023-06-14T08:01:10;28.70;99.90
6756;DHT22;3415;51.148;7.014;2023-06-14T08:03:37;29.20;99.90
6756;DHT22;3415;51.148;7.014;2023-06-14T08:06:05;30.00;99.90
6756;DHT22;3415;51.148;7.014;2023-06-14T08:08:32;30.10;99.90
6756;DHT22;3415;51.148;7.014;2023-06-14T08:10:59;30.30;99.90
6756;DHT22;3415;51.148;7.014;2023-06-14T08:13:26;30.90;99.90
6756;DHT22;3415;51.148;7.014;2023-06-14T08:15:53;30.80;99.90
6756;DHT22;3415;51.148;7.014;2023-06-14T08:18:22;31.20;99.90
6756;DHT22;3415;51.148;7.014;2023-06-14T08:20:49;31.00;99.90
6756;DHT22;3415;51.148;7.014;2023-06-14T08:23:15;30.60;99.90
6756;DHT22;3415;51.148;7.014;2023-06-14T08:25:44;30.60;99.90
6756;DHT22;3415;51.148;7.014;2023-06-14T08:28:11;29.80;99.90
6756;DHT22;3415;51.148;7.014;2023-06-14T08:30:38;29.40;99.90
6756;DHT22;3415;51.148;7.014;2023-06-14T08:33:04;30.00;99.90
6756;DHT22;3415;51.148;7.014;2023-06-14T08:35:33;30.40;99.90
6756;DHT22;3415;51.148;7.014;2023-06-14T08:38:02;30.20;99.90
6756;DHT22;3415;51.148;7.014;2023-06-14T08:40:30;30.30;99.90
6756;DHT22;3415;51.148;7.014;2023-06-14T08:42:58;30.70;99.90
6756;DHT22;3415;51.148;7.014;2023-06-14T08:45:25;30.40;99.90
6756;DHT22;3415;51.148;7.014;2023-06-14T08:47:52;30.30;99.90
6756;DHT22;3415;51.148;7.014;2023-06-14T08:50:24;31.10;99.90
6756;DHT22;3415;51.148;7.014;2023-06-14T08:52:58;31.30;99.90
6756;DHT22;3415;51.148;7.014;2023-06-14T08:55:28;30.40;99.90
6756;DHT22;3415;51.148;7.014;2023-06-14T08:57:57;30.40;99.90
6756;DHT22;3415;51.148;7.014;2023-06-14T09:00:25;30.10;99.90
6756;DHT22;3415;51.148;7.014;2023-06-14T09:02:53;30.10;99.90
6756;DHT22;3415;51.148;7.014;2023-06-14T09:05:24;30.60;99.90
6756;DHT22;3415;51.148;7.014;2023-06-14T09:07:52;30.20;99.90
6756;DHT22;3415;51.148;7.014;2023-06-14T09:10:22;30.00;99.90
6756;DHT22;3415;51.148;7.014;2023-06-14T09:12:51;30.20;99.90
6756;DHT22;3415;51.148;7.014;2023-06-14T09:15:18;30.90;99.90
6756;DHT22;3415;51.148;7.014;2023-06-14T09:17:46;31.40;99.90
6756;DHT22;3415;51.148;7.014;2023-06-14T09:20:12;31.30;99.90
6756;DHT22;3415;51.148;7.014;2023-06-14T09:22:43;30.90;99.90
6756;DHT22;3415;51.148;7.014;2023-06-14T09:25:10;30.70;99.90
6756;DHT22;3415;51.148;7.014;2023-06-14T09:27:38;31.00;99.90
6756;DHT22;3415;51.148;7.014;2023-06-14T09:30:09;30.70;99.90
6756;DHT22;3415;51.148;7.014;2023-06-14T09:32:37;31.30;99.90
6756;DHT22;3415;51.148;7.014;2023-06-14T09:35:05;31.50;99.90
6756;DHT22;3415;51.148;7.014;2023-06-14T09:37:34;31.90;99.90
6756;DHT22;3415;51.148;7.014;2023-06-14T09:40:03;32.30;99.90
6756;DHT22;3415;51.148;7.014;2023-06-14T09:42:31;32.00;99.90
6756;DHT22;3415;51.148;7.014;2023-06-14T09:45:03;31.10;99.90
6756;DHT22;3415;51.148;7.014;2023-06-14T09:47:30;32.40;99.90
6756;DHT22;3415;51.148;7.014;2023-06-14T09:49:57;33.20;99.90
6756;DHT22;3415;51.148;7.014;2023-06-14T09:52:26;32.60;99.90
6756;DHT22;3415;51.148;7.014;2023-06-14T09:54:55;32.70;99.90
6756;DHT22;3415;51.148;7.014;2023-06-14T09:57:23;31.40;99.90
6756;DHT22;3415;51.148;7.014;2023-06-14T09:59:53;32.20;99.90
6756;DHT22;3415;51.148;7.014;2023-06-14T10:02:25;33.20;99.90
6756;DHT22;3415;51.148;7.014;2023-06-14T10:04:57;34.20;99.90
6756;DHT22;3415;51.148;7.014;2023-06-14T10:07:26;33.50;99.90
6756;DHT22;3415;51.148;7.014;2023-06-14T10:09:56;33.00;99.90
6756;DHT22;3415;51.148;7.014;2023-06-14T10:12:23;33.20;99.90
6756;DHT22;3415;51.148;7.014;2023-06-14T10:14:51;33.10;99.90
6756;DHT22;3415;51.148;7.014;2023-06-14T10:17:24;33.70;99.90
6756;DHT22;3415;51.148;7.014;2023-06-14T10:19:57;33.60;99.90
6756;DHT22;3415;51.148;7.014;2023-06-14T10:22:30;32.70;99.90
6756;DHT22;3415;51.148;7.014;2023-06-14T10:24:59;31.90;99.90
6756;DHT22;3415;51.148;7.014;2023-06-14T10:27:26;32.80;99.90
6756;DHT22;3415;51.148;7.014;2023-06-14T10:30:03;32.70;99.90
6756;DHT22;3415;51.148;7.014;2023-06-14T10:32:32;33.20;99.90
6756;DHT22;3415;51.148;7.014;2023-06-14T10:35:01;33.60;99.90
6756;DHT22;3415;51.148;7.014;2023-06-14T10:37:30;33.40;99.90
6756;DHT22;3415;51.148;7.014;2023-06-14T10:39:58;33.50;99.90
6756;DHT22;3415;51.148;7.014;2023-06-14T10:42:28;32.60;99.90
6756;DHT22;3415;51.148;7.014;2023-06-14T10:44:58;32.20;99.90
6756;DHT22;3415;51.148;7.014;2023-06-14T10:47:27;32.10;99.90
6756;DHT22;3415;51.148;7.014;2023-06-14T10:49:57;32.50;99.90
6756;DHT22;3415;51.148;7.014;2023-06-14T10:52:26;32.10;99.90
6756;DHT22;3415;51.148;7.014;2023-06-14T10:55:10;32.30;99.90
6756;DHT22;3415;51.148;7.014;2023-06-14T10:57:39;32.70;99.90
6756;DHT22;3415;51.148;7.014;2023-06-14T11:00:08;32.50;99.90
6756;DHT22;3415;51.148;7.014;2023-06-14T11:05:48;32.90;99.90
6756;DHT22;3415;51.148;7.014;2023-06-14T11:11:31;33.10;99.90
6756;DHT22;3415;51.148;7.014;2023-06-14T11:14:00;32.50;99.90
6756;DHT22;3415;51.148;7.014;2023-06-14T11:16:27;32.50;99.90
6756;DHT22;3415;51.148;7.014;2023-06-14T11:18:55;33.10;99.90
6756;DHT22;3415;51.148;7.014;2023-06-14T11:21:24;33.70;99.90
6756;DHT22;3415;51.148;7.014;2023-06-14T11:23:57;33.20;99.90
6756;DHT22;3415;51.148;7.014;2023-06-14T11:26:27;33.90;99.90
6756;DHT22;3415;51.148;7.014;2023-06-14T11:28:56;32.40;99.90
6756;DHT22;3415;51.148;7.014;2023-06-14T11:31:23;32.30;99.90
6756;DHT22;3415;51.148;7.014;2023-06-14T11:33:51;32.50;99.90
6756;DHT22;3415;51.148;7.014;2023-06-14T11:36:19;32.40;99.90
6756;DHT22;3415;51.148;7.014;2023-06-14T11:38:48;32.40;99.90
6756;DHT22;3415;51.148;7.014;2023-06-14T11:41:14;32.10;99.90
6756;DHT22;3415;51.148;7.014;2023-06-14T11:43:41;32.90;99.90
6756;DHT22;3415;51.148;7.014;2023-06-14T11:46:13;33.50;99.90
6756;DHT22;3415;51.148;7.014;2023-06-14T11:48:42;33.50;99.90
6756;DHT22;3415;51.148;7.014;2023-06-14T11:51:09;33.70;99.90
6756;DHT22;3415;51.148;7.014;2023-06-14T11:53:36;34.50;99.90
6756;DHT22;3415;51.148;7.014;2023-06-14T11:56:05;34.80;99.90
6756;DHT22;3415;51.148;7.014;2023-06-14T11:58:32;34.10;99.90
6756;DHT22;3415;51.148;7.014;2023-06-14T12:00:59;34.20;99.90
6756;DHT22;3415;51.148;7.014;2023-06-14T12:03:28;34.10;99.90
6756;DHT22;3415;51.148;7.014;2023-06-14T12:06:05;34.50;99.90
6756;DHT22;3415;51.148;7.014;2023-06-14T12:08:33;33.50;99.90
6756;DHT22;3415;51.148;7.014;2023-06-14T12:11:06;33.60;99.90
6756;DHT22;3415;51.148;7.014;2023-06-14T12:13:34;33.00;99.90
6756;DHT22;3415;51.148;7.014;2023-06-14T12:16:02;32.80;99.90
6756;DHT22;3415;51.148;7.014;2023-06-14T12:18:33;32.00;99.90
6756;DHT22;3415;51.148;7.014;2023-06-14T12:21:01;30.50;99.90
6756;DHT22;3415;51.148;7.014;2023-06-14T12:23:39;29.50;99.90
6756;DHT22;3415;51.148;7.014;2023-06-14T12:26:07;28.30;99.90
6756;DHT22;3415;51.148;7.014;2023-06-14T12:28:34;28.30;99.90
6756;DHT22;3415;51.148;7.014;2023-06-14T12:31:01;27.80;99.90
6756;DHT22;3415;51.148;7.014;2023-06-14T12:33:28;27.60;99.90
6756;DHT22;3415;51.148;7.014;2023-06-14T12:35:55;27.40;99.90
6756;DHT22;3415;51.148;7.014;2023-06-14T12:38:24;27.40;99.90
6756;DHT22;3415;51.148;7.014;2023-06-14T12:40:51;26.90;99.90
6756;DHT22;3415;51.148;7.014;2023-06-14T12:43:19;27.00;99.90
6756;DHT22;3415;51.148;7.014;2023-06-14T12:45:46;26.80;99.90
6756;DHT22;3415;51.148;7.014;2023-06-14T12:48:13;26.80;99.90
6756;DHT22;3415;51.148;7.014;2023-06-14T12:50:40;26.60;99.90
6756;DHT22;3415;51.148;7.014;2023-06-14T12:53:07;26.40;99.90
6756;DHT22;3415;51.148;7.014;2023-06-14T12:55:34;26.50;99.90
6756;DHT22;3415;51.148;7.014;2023-06-14T12:58:01;26.50;99.90
6756;DHT22;3415;51.148;7.014;2023-06-14T13:00:29;26.60;99.90
6756;DHT22;3415;51.148;7.014;2023-06-14T13:02:56;26.70;99.90
6756;DHT22;3415;51.148;7.014;2023-06-14T13:05:23;26.70;99.90
6756;DHT22;3415;51.148;7.014;2023-06-14T13:07:50;26.40;99.90
6756;DHT22;3415;51.148;7.014;2023-06-14T13:10:17;26.60;99.90
6756;DHT22;3415;51.148;7.014;2023-06-14T13:12:44;26.40;99.90
6756;DHT22;3415;51.148;7.014;2023-06-14T13:15:11;26.40;99.90
6756;DHT22;3415;51.148;7.014;2023-06-14T13:17:39;26.70;99.90
6756;DHT22;3415;51.148;7.014;2023-06-14T13:20:07;26.70;99.90
6756;DHT22;3415;51.148;7.014;2023-06-14T13:22:35;26.30;99.90
6756;DHT22;3415;51.148;7.014;2023-06-14T13:25:02;26.10;99.90
6756;DHT22;3415;51.148;7.014;2023-06-14T13:27:29;26.20;99.90
6756;DHT22;3415;51.148;7.014;2023-06-14T13:29:56;26.40;99.90
6756;DHT22;3415;51.148;7.014;2023-06-14T13:32:23;26.70;99.90
6756;DHT22;3415;51.148;7.014;2023-06-14T13:34:52;26.60;99.90
6756;DHT22;3415;51.148;7.014;2023-06-14T13:37:18;26.30;99.90
6756;DHT22;3415;51.148;7.014;2023-06-14T13:39:45;26.00;99.90
6756;DHT22;3415;51.148;7.014;2023-06-14T13:42:12;25.70;99.90
6756;DHT22;3415;51.148;7.014;2023-06-14T13:44:39;26.10;99.90
6756;DHT22;3415;51.148;7.014;2023-06-14T13:47:06;26.20;99.90
6756;DHT22;3415;51.148;7.014;2023-06-14T13:49:33;26.10;99.90
6756;DHT22;3415;51.148;7.014;2023-06-14T13:52:02;26.20;99.90
6756;DHT22;3415;51.148;7.014;2023-06-14T13:54:29;26.10;99.90
6756;DHT22;3415;51.148;7.014;2023-06-14T13:56:56;26.00;99.90
6756;DHT22;3415;51.148;7.014;2023-06-14T13:59:23;26.10;99.90
6756;DHT22;3415;51.148;7.014;2023-06-14T14:01:50;26.40;99.90
6756;DHT22;3415;51.148;7.014;2023-06-14T14:04:16;26.30;99.90
6756;DHT22;3415;51.148;7.014;2023-06-14T14:06:43;26.30;99.90
6756;DHT22;3415;51.148;7.014;2023-06-14T14:09:12;26.30;99.90
6756;DHT22;3415;51.148;7.014;2023-06-14T14:11:39;26.30;99.90
6756;DHT22;3415;51.148;7.014;2023-06-14T14:14:07;26.20;99.90
6756;DHT22;3415;51.148;7.014;2023-06-14T14:16:35;26.20;99.90
6756;DHT22;3415;51.148;7.014;2023-06-14T14:19:02;26.40;99.90
6756;DHT22;3415;51.148;7.014;2023-06-14T14:21:29;26.40;99.90
6756;DHT22;3415;51.148;7.014;2023-06-14T14:23:56;26.40;99.90
6756;DHT22;3415;51.148;7.014;2023-06-14T14:26:24;26.20;99.90
6756;DHT22;3415;51.148;7.014;2023-06-14T14:28:51;26.20;99.90
6756;DHT22;3415;51.148;7.014;2023-06-14T14:31:18;26.20;99.90
6756;DHT22;3415;51.148;7.014;2023-06-14T14:33:45;26.20;99.90
6756;DHT22;3415;51.148;7.014;2023-06-14T14:36:12;26.20;99.90
6756;DHT22;3415;51.148;7.014;2023-06-14T14:38:39;26.20;99.90
6756;DHT22;3415;51.148;7.014;2023-06-14T14:41:06;26.30;99.90
6756;DHT22;3415;51.148;7.014;2023-06-14T14:43:34;26.40;99.90
6756;DHT22;3415;51.148;7.014;2023-06-14T14:46:01;26.40;99.90
6756;DHT22;3415;51.148;7.014;2023-06-14T14:48:28;26.10;99.90
6756;DHT22;3415;51.148;7.014;2023-06-14T14:50:54;26.00;99.90
6756;DHT22;3415;51.148;7.014;2023-06-14T14:53:21;26.00;99.90
6756;DHT22;3415;51.148;7.014;2023-06-14T14:55:48;26.00;99.90
6756;DHT22;3415;51.148;7.014;2023-06-14T14:58:16;25.90;99.90
6756;DHT22;3415;51.148;7.014;2023-06-14T15:00:45;26.00;99.90
6756;DHT22;3415;51.148;7.014;2023-06-14T15:03:12;26.00;99.90
6756;DHT22;3415;51.148;7.014;2023-06-14T15:05:40;26.00;99.90
6756;DHT22;3415;51.148;7.014;2023-06-14T15:08:07;26.00;99.90
6756;DHT22;3415;51.148;7.014;2023-06-14T15:10:37;25.90;99.90
6756;DHT22;3415;51.148;7.014;2023-06-14T15:13:06;25.90;99.90
6756;DHT22;3415;51.148;7.014;2023-06-14T15:15:34;25.80;99.90
6756;DHT22;3415;51.148;7.014;2023-06-14T15:18:03;25.80;99.90
6756;DHT22;3415;51.148;7.014;2023-06-14T15:20:30;25.80;99.90
6756;DHT22;3415;51.148;7.014;2023-06-14T15:22:57;25.90;99.90
6756;DHT22;3415;51.148;7.014;2023-06-14T15:25:25;25.80;99.90
6756;DHT22;3415;51.148;7.014;2023-06-14T15:27:52;25.70;99.90
6756;DHT22;3415;51.148;7.014;2023-06-14T15:30:19;25.70;99.90
6756;DHT22;3415;51.148;7.014;2023-06-14T15:32:47;25.60;99.90
6756;DHT22;3415;51.148;7.014;2023-06-14T15:35:17;25.50;99.90
6756;DHT22;3415;51.148;7.014;2023-06-14T15:37:44;25.50;99.90
6756;DHT22;3415;51.148;7.014;2023-06-14T15:40:12;25.50;99.90
6756;DHT22;3415;51.148;7.014;2023-06-14T15:42:39;25.50;99.90
6756;DHT22;3415;51.148;7.014;2023-06-14T15:45:07;25.60;99.90
6756;DHT22;3415;51.148;7.014;2023-06-14T15:47:34;25.60;99.90
6756;DHT22;3415;51.148;7.014;2023-06-14T15:50:01;25.60;99.90
6756;DHT22;3415;51.148;7.014;2023-06-14T15:52:31;25.60;99.90
6756;DHT22;3415;51.148;7.014;2023-06-14T15:54:58;25.40;99.90
6756;DHT22;3415;51.148;7.014;2023-06-14T15:57:25;25.20;99.90
6756;DHT22;3415;51.148;7.014;2023-06-14T15:59:52;25.30;99.90
6756;DHT22;3415;51.148;7.014;2023-06-14T16:02:19;25.30;99.90
6756;DHT22;3415;51.148;7.014;2023-06-14T16:04:46;25.10;99.90
6756;DHT22;3415;51.148;7.014;2023-06-14T16:07:13;25.10;99.90
6756;DHT22;3415;51.148;7.014;2023-06-14T16:09:41;25.10;99.90
6756;DHT22;3415;51.148;7.014;2023-06-14T16:12:09;25.10;99.90